Time;durP1;ratioP1;P1;durP2;ratioP2;P2;SDS_P1;SDS_P2;PMS_P1;PMS_P2;Temp;Humidity;BMP_temperature;BMP_pressure;BME280_temperature;BME280_humidity;BME280_pressure;Samples;Min_cycle;Max_cycle;Signal;HPM_P1;HPM_P2
2022/03/06 00:00:41;;;;;;;7.23;5.00;;;15.60;43.30;;;;;;5046445;28;20427;-80
2022/03/06 00:03:09;;;;;;;14.20;5.10;;;15.60;43.30;;;;;;5046881;28;20545;-80
2022/03/06 00:05:37;;;;;;;7.60;5.80;;;15.60;43.30;;;;;;5045632;28;20469;-80
2022/03/06 00:08:06;;;;;;;10.07;5.17;;;15.50;43.40;;;;;;5050742;28;20430;-80
2022/03/06 00:10:35;;;;;;;5.93;5.27;;;15.50;43.40;;;;;;5048295;28;20514;-80
2022/03/06 00:13:03;;;;;;;7.80;5.20;;;15.50;43.50;;;;;;5046939;28;20489;-80
2022/03/06 00:15:31;;;;;;;5.73;5.03;;;15.50;43.60;;;;;;5045948;28;20435;-80
2022/03/06 00:17:59;;;;;;;6.90;5.13;;;15.50;43.60;;;;;;5044156;28;20914;-80
2022/03/06 00:20:26;;;;;;;5.97;4.83;;;15.50;43.70;;;;;;5044486;28;20463;-80
2022/03/06 00:22:55;;;;;;;6.50;5.10;;;15.40;43.70;;;;;;5046473;28;20482;-80
2022/03/06 00:25:23;;;;;;;6.67;5.23;;;15.40;43.70;;;;;;5053204;28;20480;-80
2022/03/06 00:27:52;;;;;;;7.63;5.73;;;15.40;43.80;;;;;;5046828;28;20931;-80
2022/03/06 00:30:20;;;;;;;7.80;4.73;;;15.40;43.80;;;;;;5043660;28;20428;-80
2022/03/06 00:32:47;;;;;;;6.20;5.30;;;15.30;43.80;;;;;;5045927;28;20454;-80
2022/03/06 00:35:15;;;;;;;6.97;5.47;;;15.30;43.80;;;;;;5045423;28;20462;-80
2022/03/06 00:37:43;;;;;;;5.70;4.70;;;15.30;44.50;;;;;;5043557;28;20474;-80
2022/03/06 00:40:12;;;;;;;6.57;5.40;;;15.30;43.90;;;;;;5047145;28;20570;-80
2022/03/06 00:42:40;;;;;;;6.30;5.00;;;15.30;44.10;;;;;;5047735;28;20613;-80
2022/03/06 00:45:10;;;;;;;6.50;5.30;;;15.30;44.00;;;;;;5037440;28;20970;-80
2022/03/06 00:47:38;;;;;;;6.80;5.10;;;15.20;44.00;;;;;;5035562;28;20431;-80
2022/03/06 00:50:06;;;;;;;7.17;4.90;;;15.20;44.10;;;;;;5035265;28;20685;-80
2022/03/06 00:52:34;;;;;;;5.70;4.80;;;15.20;44.20;;;;;;5035023;28;20498;-80
2022/03/06 00:55:02;;;;;;;6.17;4.70;;;15.20;44.30;;;;;;5034996;28;20484;-80
2022/03/06 00:57:30;;;;;;;8.33;5.30;;;15.20;44.30;;;;;;5045384;28;20489;-80
2022/03/06 00:59:58;;;;;;;8.77;5.37;;;15.20;44.40;;;;;;5054483;28;20549;-80
2022/03/06 01:02:27;;;;;;;7.47;5.83;;;15.20;44.40;;;;;;5055147;28;20465;-80
2022/03/06 01:04:55;;;;;;;7.30;5.00;;;15.20;44.40;;;;;;5054296;28;20482;-80
2022/03/06 01:07:23;;;;;;;5.87;4.90;;;15.10;44.50;;;;;;5054330;28;21007;-80
2022/03/06 01:09:51;;;;;;;8.53;5.40;;;15.10;44.50;;;;;;5054313;28;20465;-80
2022/03/06 01:12:19;;;;;;;9.57;5.20;;;15.10;44.50;;;;;;5053788;28;20496;-79
2022/03/06 01:14:47;;;;;;;6.33;5.10;;;15.10;44.50;;;;;;5052450;28;20550;-79
2022/03/06 01:17:14;;;;;;;5.97;5.20;;;15.10;44.60;;;;;;5054514;28;20469;-80
2022/03/06 01:19:44;;;;;;;5.13;4.60;;;15.10;44.60;;;;;;5054283;28;20479;-79
2022/03/06 01:22:12;;;;;;;7.10;5.53;;;15.10;44.60;;;;;;5054529;28;20435;-79
2022/03/06 01:24:39;;;;;;;7.43;5.10;;;15.10;44.70;;;;;;5054306;28;20469;-79
2022/03/06 01:27:07;;;;;;;6.97;5.40;;;15.00;44.70;;;;;;5054480;28;20470;-80
2022/03/06 01:29:35;;;;;;;5.00;4.50;;;15.10;44.80;;;;;;5055047;28;20473;-79
2022/03/06 01:32:04;;;;;;;6.70;4.93;;;15.10;44.80;;;;;;5051872;28;20955;-80
2022/03/06 01:34:33;;;;;;;5.87;4.43;;;15.00;44.80;;;;;;5052710;28;20493;-80
2022/03/06 01:37:02;;;;;;;5.13;4.50;;;15.10;44.80;;;;;;5054158;28;20470;-79
2022/03/06 01:39:30;;;;;;;4.97;4.57;;;15.10;44.80;;;;;;5054225;28;20509;-80
2022/03/06 01:41:58;;;;;;;5.13;4.63;;;15.10;44.90;;;;;;5054308;28;20430;-79
2022/03/06 01:44:26;;;;;;;6.90;4.67;;;15.10;44.90;;;;;;5054085;28;20486;-79
2022/03/06 01:46:54;;;;;;;5.33;4.67;;;15.10;44.80;;;;;;5054368;28;20439;-80
2022/03/06 01:49:22;;;;;;;6.10;5.30;;;15.10;44.80;;;;;;5050801;28;20475;-80
2022/03/06 01:51:49;;;;;;;5.67;5.10;;;15.10;44.80;;;;;;5053660;28;20462;-79
2022/03/06 01:54:18;;;;;;;7.27;4.90;;;15.10;44.90;;;;;;5054091;28;20482;-79
2022/03/06 01:56:46;;;;;;;6.10;4.40;;;15.10;44.80;;;;;;5054319;28;20481;-79
2022/03/06 01:59:14;;;;;;;6.10;5.03;;;15.00;44.80;;;;;;5054723;28;20521;-79
2022/03/06 02:01:42;;;;;;;6.53;5.57;;;15.00;44.80;;;;;;5054394;28;20493;-79
2022/03/06 02:04:10;;;;;;;5.10;4.60;;;15.10;44.90;;;;;;5053772;28;20542;-79
2022/03/06 02:06:38;;;;;;;5.17;4.47;;;15.10;44.90;;;;;;5054105;28;20438;-80
2022/03/06 02:09:06;;;;;;;5.10;4.60;;;15.00;44.80;;;;;;5049771;28;20490;-80
2022/03/06 02:11:35;;;;;;;5.60;4.67;;;15.00;44.90;;;;;;5054296;28;20520;-80
2022/03/06 02:14:03;;;;;;;4.90;4.37;;;15.00;45.00;;;;;;5053943;28;20493;-80
2022/03/06 02:16:32;;;;;;;7.43;4.60;;;15.00;44.90;;;;;;5054560;28;20552;-80
2022/03/06 02:19:00;;;;;;;4.90;4.40;;;15.10;45.00;;;;;;5053813;28;20466;-80
2022/03/06 02:21:29;;;;;;;6.03;4.83;;;15.00;45.00;;;;;;5053598;28;20564;-80
2022/03/06 02:23:57;;;;;;;4.57;4.10;;;15.10;45.00;;;;;;5053998;28;20446;-80
2022/03/06 02:26:25;;;;;;;5.63;4.83;;;15.00;45.00;;;;;;5052550;28;20891;-80
2022/03/06 02:28:53;;;;;;;6.10;4.60;;;15.00;45.00;;;;;;5053595;28;20553;-80
2022/03/06 02:31:21;;;;;;;4.77;4.27;;;15.00;44.90;;;;;;5052992;28;20465;-80
2022/03/06 02:33:49;;;;;;;6.00;4.90;;;15.10;45.00;;;;;;5053682;28;20458;-80
2022/03/06 02:36:17;;;;;;;5.03;4.27;;;15.10;44.90;;;;;;5055494;28;20473;-80
2022/03/06 02:38:46;;;;;;;4.87;4.37;;;15.10;44.90;;;;;;5057229;28;20468;-80
2022/03/06 02:41:14;;;;;;;5.97;4.33;;;15.00;44.90;;;;;;5057149;28;20498;-80
2022/03/06 02:43:42;;;;;;;5.10;4.60;;;15.00;45.00;;;;;;5053126;28;20513;-80
2022/03/06 02:46:09;;;;;;;4.70;4.30;;;15.00;45.00;;;;;;5056448;28;20461;-80
2022/03/06 02:48:37;;;;;;;5.07;4.57;;;15.10;45.00;;;;;;5057298;28;20450;-80
2022/03/06 02:51:06;;;;;;;4.10;3.70;;;15.00;45.20;;;;;;5056707;28;20508;-80
2022/03/06 02:53:33;;;;;;;4.90;4.43;;;15.00;44.90;;;;;;5057381;28;20459;-80
2022/03/06 02:56:03;;;;;;;6.10;4.60;;;15.00;45.00;;;;;;5056815;28;20460;-80
2022/03/06 02:58:31;;;;;;;4.77;4.23;;;15.00;45.00;;;;;;5055346;28;20773;-80
2022/03/06 03:00:59;;;;;;;5.03;4.37;;;15.10;45.10;;;;;;5056701;28;20474;-80
2022/03/06 03:03:27;;;;;;;4.50;4.10;;;15.00;45.10;;;;;;5056926;28;20474;-80
2022/03/06 03:05:55;;;;;;;4.80;4.30;;;15.00;45.20;;;;;;5057352;28;20466;-80
2022/03/06 03:08:23;;;;;;;5.50;4.23;;;15.00;45.00;;;;;;5058271;28;20455;-80
2022/03/06 03:10:51;;;;;;;6.90;4.00;;;15.00;45.10;;;;;;5058772;28;20481;-80
2022/03/06 03:13:20;;;;;;;4.70;4.30;;;15.00;45.00;;;;;;5058275;28;20494;-80
2022/03/06 03:15:48;;;;;;;7.23;4.37;;;15.00;45.00;;;;;;5057015;28;20500;-79
2022/03/06 03:18:16;;;;;;;5.33;4.50;;;15.10;45.20;;;;;;5057494;28;20431;-79
2022/03/06 03:20:44;;;;;;;3.80;3.50;;;15.00;45.10;;;;;;5057301;28;20504;-79
2022/03/06 03:23:11;;;;;;;4.60;4.17;;;15.00;45.00;;;;;;5056250;28;20498;-80
2022/03/06 03:25:39;;;;;;;8.60;3.93;;;15.00;45.20;;;;;;5055668;28;20500;-80
2022/03/06 03:28:07;;;;;;;5.77;4.30;;;15.00;45.20;;;;;;5055934;28;20501;-80
2022/03/06 03:30:37;;;;;;;4.03;3.73;;;15.00;45.20;;;;;;5056138;28;20469;-81
2022/03/06 03:33:05;;;;;;;4.27;3.97;;;15.00;45.20;;;;;;5053521;28;20474;-83
2022/03/06 03:35:32;;;;;;;5.43;4.00;;;15.00;45.30;;;;;;5055663;28;20532;-83
2022/03/06 03:38:00;;;;;;;4.40;3.97;;;15.00;45.30;;;;;;5055804;28;20473;-81
2022/03/06 03:40:28;;;;;;;4.23;3.90;;;14.90;45.20;;;;;;5055543;28;20498;-81
2022/03/06 03:42:56;;;;;;;3.57;3.27;;;15.00;45.40;;;;;;5055471;28;20463;-81
2022/03/06 03:45:24;;;;;;;4.00;3.70;;;15.00;45.30;;;;;;5056057;28;20434;-81
2022/03/06 03:47:53;;;;;;;4.03;3.70;;;15.00;45.40;;;;;;5055300;28;20438;-80
2022/03/06 03:50:21;;;;;;;3.73;3.40;;;14.90;45.40;;;;;;5053512;28;20475;-80
2022/03/06 03:52:49;;;;;;;4.50;4.10;;;14.90;45.40;;;;;;5055112;28;20493;-80
2022/03/06 03:55:17;;;;;;;4.23;3.83;;;15.00;45.50;;;;;;5054692;28;20474;-82
2022/03/06 03:57:45;;;;;;;4.80;3.87;;;15.00;45.30;;;;;;5055355;28;20497;-80
2022/03/06 04:00:13;;;;;;;4.63;3.80;;;15.00;45.40;;;;;;5055145;28;20431;-80
2022/03/06 04:02:41;;;;;;;4.13;3.73;;;15.00;45.30;;;;;;5054797;28;20475;-80
2022/03/06 04:05:11;;;;;;;4.23;3.83;;;15.00;45.40;;;;;;5054714;28;20467;-80
2022/03/06 04:07:39;;;;;;;4.00;3.50;;;15.00;45.40;;;;;;5052822;28;20516;-80
2022/03/06 04:10:07;;;;;;;3.70;3.40;;;14.90;45.30;;;;;;5055120;28;20439;-80
2022/03/06 04:12:35;;;;;;;3.80;3.50;;;14.90;45.50;;;;;;5055043;28;20469;-80
2022/03/06 04:15:03;;;;;;;4.03;3.63;;;14.90;45.40;;;;;;5055176;28;20431;-80
2022/03/06 04:17:31;;;;;;;3.80;3.50;;;14.90;45.40;;;;;;5054631;28;20500;-81
2022/03/06 04:19:59;;;;;;;4.27;3.80;;;14.90;45.40;;;;;;5054915;28;20473;-82
2022/03/06 04:22:28;;;;;;;4.40;3.40;;;14.90;45.40;;;;;;5054559;28;20470;-79
2022/03/06 04:24:56;;;;;;;4.10;3.43;;;14.90;45.40;;;;;;5054709;28;20492;-80
2022/03/06 04:27:24;;;;;;;3.70;3.40;;;14.90;45.50;;;;;;5052025;28;20547;-83
2022/03/06 04:29:52;;;;;;;3.87;3.57;;;14.90;45.50;;;;;;5055064;28;20469;-81
2022/03/06 04:32:20;;;;;;;4.33;3.60;;;14.90;45.50;;;;;;5054215;28;20504;-80
2022/03/06 04:34:48;;;;;;;3.57;3.30;;;14.90;45.50;;;;;;5054551;28;20474;-81
2022/03/06 04:37:16;;;;;;;3.60;3.30;;;14.90;45.50;;;;;;5054196;28;20473;-82
2022/03/06 04:39:45;;;;;;;4.20;3.80;;;14.80;45.50;;;;;;5054705;28;20430;-81
2022/03/06 04:42:13;;;;;;;3.70;3.40;;;14.80;45.40;;;;;;5051817;28;20553;-80
2022/03/06 04:44:41;;;;;;;3.40;3.20;;;14.80;45.60;;;;;;5054934;28;20446;-81
2022/03/06 04:47:09;;;;;;;3.37;3.10;;;14.80;45.60;;;;;;5054495;28;21015;-81
2022/03/06 04:49:37;;;;;;;3.67;3.30;;;14.80;45.50;;;;;;5054263;28;20456;-80
2022/03/06 04:52:06;;;;;;;3.60;3.30;;;14.80;45.60;;;;;;5054314;28;20447;-82
2022/03/06 04:54:34;;;;;;;4.00;3.70;;;14.80;45.60;;;;;;5053909;28;20954;-80
2022/03/06 04:57:03;;;;;;;3.50;3.30;;;14.80;45.60;;;;;;5054980;28;20471;-81
2022/03/06 04:59:31;;;;;;;2.97;2.77;;;14.80;45.70;;;;;;5051319;28;20541;-82
2022/03/06 05:01:59;;;;;;;4.20;3.50;;;14.80;45.60;;;;;;5054839;28;20498;-81
2022/03/06 05:04:27;;;;;;;3.03;2.83;;;14.70;45.60;;;;;;5053783;28;20465;-80
2022/03/06 05:06:55;;;;;;;3.23;3.03;;;14.70;45.70;;;;;;5053942;28;20545;-80
2022/03/06 05:09:22;;;;;;;3.40;3.10;;;14.70;45.80;;;;;;5053873;28;20485;-82
2022/03/06 05:11:50;;;;;;;3.43;3.13;;;14.70;45.80;;;;;;5053905;28;20422;-80
2022/03/06 05:14:20;;;;;;;3.90;3.47;;;14.70;45.70;;;;;;5053104;28;20459;-81
2022/03/06 05:16:47;;;;;;;3.20;2.90;;;14.70;45.90;;;;;;5051942;28;20470;-83
2022/03/06 05:19:15;;;;;;;3.40;3.10;;;14.60;45.80;;;;;;5053932;28;20431;-80
2022/03/06 05:21:44;;;;;;;3.13;2.90;;;14.60;45.80;;;;;;5053702;28;20529;-80
2022/03/06 05:24:12;;;;;;;3.57;3.07;;;14.60;45.90;;;;;;5053725;28;20450;-80
2022/03/06 05:26:40;;;;;;;3.23;3.03;;;14.60;46.00;;;;;;5054030;28;20474;-82
2022/03/06 05:29:08;;;;;;;3.90;3.40;;;14.60;45.90;;;;;;5053697;28;20923;-82
2022/03/06 05:31:37;;;;;;;2.90;2.70;;;14.50;46.00;;;;;;5053572;28;20470;-81
2022/03/06 05:34:05;;;;;;;3.60;3.30;;;14.50;46.00;;;;;;5048512;28;20497;-81
2022/03/06 05:36:33;;;;;;;4.03;3.17;;;14.50;46.10;;;;;;5053695;28;20478;-81
2022/03/06 05:39:01;;;;;;;3.73;3.27;;;14.40;46.10;;;;;;5053649;28;20795;-81
2022/03/06 05:41:29;;;;;;;3.30;2.97;;;14.40;46.10;;;;;;5053875;28;20469;-81
2022/03/06 05:43:57;;;;;;;3.00;2.80;;;14.40;46.20;;;;;;5053476;28;20864;-81
2022/03/06 05:46:25;;;;;;;3.40;3.10;;;14.40;46.30;;;;;;5053571;28;20430;-81
2022/03/06 05:48:54;;;;;;;3.83;3.37;;;14.30;46.30;;;;;;5053467;28;20489;-81
2022/03/06 05:51:22;;;;;;;3.73;3.43;;;14.30;46.40;;;;;;5051949;28;20450;-83
2022/03/06 05:53:50;;;;;;;3.43;3.13;;;14.30;46.40;;;;;;5053735;28;20501;-81
2022/03/06 05:56:18;;;;;;;3.43;3.13;;;14.30;46.40;;;;;;5053686;28;20442;-81
2022/03/06 05:58:46;;;;;;;3.47;3.17;;;14.30;46.40;;;;;;5053789;28;20508;-81
2022/03/06 06:01:13;;;;;;;3.33;3.03;;;14.30;46.50;;;;;;5053853;28;20477;-82
2022/03/06 06:03:43;;;;;;;3.10;2.90;;;14.20;46.50;;;;;;5053464;28;20474;-82
2022/03/06 06:06:12;;;;;;;3.13;2.93;;;14.20;46.50;;;;;;5051547;28;20455;-81
2022/03/06 06:08:40;;;;;;;3.83;3.20;;;14.20;47.20;;;;;;5045603;28;20481;-81
2022/03/06 06:11:08;;;;;;;3.73;3.40;;;14.20;46.60;;;;;;5057113;28;20435;-81
2022/03/06 06:13:36;;;;;;;3.47;3.20;;;14.20;46.60;;;;;;5057616;28;20467;-82
2022/03/06 06:16:04;;;;;;;3.97;3.57;;;14.30;46.40;;;;;;5058152;28;20474;-82
2022/03/06 06:18:32;;;;;;;3.00;2.80;;;14.20;46.40;;;;;;5057634;28;20518;-82
2022/03/06 06:21:00;;;;;;;3.03;2.80;;;14.30;46.50;;;;;;5057942;28;20478;-81
2022/03/06 06:23:29;;;;;;;3.07;2.87;;;14.30;46.50;;;;;;5055560;28;20490;-80
2022/03/06 06:26:01;;;;;;;3.27;3.00;;;14.30;46.50;;;;;;5057511;28;20487;-80
2022/03/06 06:28:29;;;;;;;3.20;3.00;;;14.20;46.60;;;;;;5057355;28;20583;-80
2022/03/06 06:30:57;;;;;;;3.50;3.20;;;14.20;46.50;;;;;;5057494;28;20434;-80
2022/03/06 06:33:25;;;;;;;3.20;3.00;;;14.30;46.50;;;;;;5057538;28;20508;-80
2022/03/06 06:35:53;;;;;;;2.93;2.73;;;14.40;46.40;;;;;;5057842;28;20504;-80
2022/03/06 06:38:21;;;;;;;3.00;2.77;;;14.30;46.40;;;;;;5056643;28;20520;-80
2022/03/06 06:40:51;;;;;;;3.83;3.50;;;14.30;46.40;;;;;;5051410;28;20485;-80
2022/03/06 06:43:19;;;;;;;3.90;2.90;;;14.30;46.40;;;;;;5056451;28;20493;-81
2022/03/06 06:45:47;;;;;;;2.73;2.53;;;14.40;46.40;;;;;;5056571;28;20508;-81
2022/03/06 06:48:15;;;;;;;3.10;2.90;;;14.40;46.50;;;;;;5057098;28;20441;-80
2022/03/06 06:50:42;;;;;;;3.03;2.83;;;14.40;46.40;;;;;;5056754;28;20477;-80
2022/03/06 06:53:10;;;;;;;2.80;2.63;;;14.40;46.40;;;;;;5056761;28;20450;-82
2022/03/06 06:55:38;;;;;;;3.00;2.80;;;14.40;46.30;;;;;;5051607;28;20497;-81
2022/03/06 06:58:08;;;;;;;2.93;2.73;;;14.40;46.40;;;;;;5056475;28;20534;-80
2022/03/06 07:00:36;;;;;;;2.83;2.63;;;14.40;46.40;;;;;;5056707;28;20492;-80
2022/03/06 07:03:04;;;;;;;3.20;3.00;;;14.40;46.40;;;;;;5056008;28;20569;-80
2022/03/06 07:05:32;;;;;;;3.00;2.80;;;14.40;46.40;;;;;;5056531;28;20501;-82
2022/03/06 07:08:00;;;;;;;2.90;2.70;;;14.50;46.30;;;;;;5056377;28;20492;-81
2022/03/06 07:10:28;;;;;;;4.10;3.20;;;14.50;46.30;;;;;;5057061;28;20442;-81
2022/03/06 07:12:56;;;;;;;3.23;3.03;;;14.50;46.40;;;;;;5051252;28;20474;-80
2022/03/06 07:15:28;;;;;;;2.90;2.70;;;14.50;46.40;;;;;;5055981;28;20461;-80
2022/03/06 07:17:57;;;;;;;3.00;2.80;;;14.50;46.20;;;;;;5056304;28;20506;-82
2022/03/06 07:20:25;;;;;;;2.63;2.43;;;14.60;46.40;;;;;;5056612;28;20451;-83
2022/03/06 07:22:54;;;;;;;4.20;2.53;;;14.60;46.20;;;;;;5055172;28;20501;-82
2022/03/06 07:25:21;;;;;;;3.30;2.93;;;14.60;46.10;;;;;;5056874;28;20454;-82
2022/03/06 07:27:49;;;;;;;3.23;2.93;;;14.60;46.00;;;;;;5055530;28;20450;-83
2022/03/06 07:30:17;;;;;;;2.70;2.60;;;14.60;46.20;;;;;;5050559;28;20467;-82
2022/03/06 07:32:47;;;;;;;2.70;2.50;;;14.60;46.10;;;;;;5056165;28;20450;-81
2022/03/06 07:35:16;;;;;;;3.37;3.17;;;14.60;46.00;;;;;;5056197;28;20434;-81
2022/03/06 07:37:44;;;;;;;2.60;2.40;;;14.70;46.10;;;;;;5055787;28;20438;-81
2022/03/06 07:40:14;;;;;;;3.00;2.20;;;14.70;46.00;;;;;;5055414;28;20431;-80
2022/03/06 07:42:42;;;;;;;3.20;2.57;;;14.70;45.90;;;;;;5055352;28;20474;-82
2022/03/06 07:45:11;;;;;;;3.57;2.40;;;14.70;45.90;;;;;;5055264;28;20492;-82
2022/03/06 07:47:39;;;;;;;2.67;2.50;;;14.80;46.00;;;;;;5053322;28;20450;-80
2022/03/06 07:50:10;;;;;;;3.00;2.80;;;14.80;45.90;;;;;;5055375;28;20431;-80
2022/03/06 07:52:38;;;;;;;2.67;2.47;;;14.90;45.80;;;;;;5055443;28;20496;-81
2022/03/06 07:55:07;;;;;;;2.50;2.33;;;14.90;45.80;;;;;;5055561;28;20528;-81
2022/03/06 07:57:35;;;;;;;2.73;2.53;;;14.90;45.80;;;;;;5055442;28;20446;-81
2022/03/06 08:00:03;;;;;;;3.87;2.10;;;14.90;45.80;;;;;;5054954;28;20431;-80
2022/03/06 08:02:31;;;;;;;2.40;2.30;;;14.90;45.70;;;;;;5053704;28;20583;-82
2022/03/06 08:04:59;;;;;;;2.60;2.40;;;15.00;45.60;;;;;;5053629;28;20458;-81
2022/03/06 08:07:28;;;;;;;2.30;2.20;;;15.00;45.60;;;;;;5055627;28;20496;-82
2022/03/06 08:09:56;;;;;;;2.77;2.50;;;15.00;45.60;;;;;;5055267;28;20446;-81
2022/03/06 08:12:26;;;;;;;2.47;2.30;;;15.10;45.60;;;;;;5055082;28;20458;-81
2022/03/06 08:14:54;;;;;;;2.80;2.60;;;15.20;45.50;;;;;;5054730;28;20435;-81
2022/03/06 08:17:22;;;;;;;2.70;2.47;;;15.30;45.50;;;;;;5054367;28;20442;-82
2022/03/06 08:19:50;;;;;;;3.63;2.50;;;15.40;45.40;;;;;;5052233;28;20470;-83
2022/03/06 08:22:21;;;;;;;2.00;1.90;;;15.50;45.30;;;;;;5054765;28;20478;-81
2022/03/06 08:24:50;;;;;;;2.77;2.57;;;15.60;45.30;;;;;;5055355;28;20490;-80
2022/03/06 08:27:18;;;;;;;2.47;2.27;;;15.80;45.10;;;;;;5055313;28;20478;-80
2022/03/06 08:29:46;;;;;;;3.00;2.70;;;16.10;45.00;;;;;;5055301;28;20927;-81
2022/03/06 08:32:14;;;;;;;2.70;2.50;;;16.30;44.70;;;;;;5055529;28;20505;-80
2022/03/06 08:34:42;;;;;;;2.50;2.30;;;16.60;44.50;;;;;;5054272;28;20489;-80
2022/03/06 08:37:10;;;;;;;2.20;2.00;;;17.00;44.20;;;;;;5053858;28;20890;-81
2022/03/06 08:39:38;;;;;;;2.40;2.30;;;17.10;43.70;;;;;;5054460;28;20484;-82
2022/03/06 08:42:07;;;;;;;2.00;1.90;;;17.40;43.60;;;;;;5054885;28;20508;-83
2022/03/06 08:44:35;;;;;;;2.20;2.10;;;17.60;43.50;;;;;;5054418;28;20466;-81
2022/03/06 08:47:04;;;;;;;2.60;2.40;;;17.80;43.40;;;;;;5054126;28;20462;-81
2022/03/06 08:49:32;;;;;;;2.50;2.30;;;17.80;43.40;;;;;;5054092;28;20474;-81
2022/03/06 08:52:00;;;;;;;2.50;2.30;;;17.90;43.60;;;;;;5053921;28;20427;-81
2022/03/06 08:54:28;;;;;;;2.00;1.87;;;17.90;43.80;;;;;;5052193;28;20478;-82
2022/03/06 08:56:56;;;;;;;2.23;2.13;;;17.90;44.00;;;;;;5055509;28;20430;-80
2022/03/06 08:59:25;;;;;;;2.50;2.30;;;17.90;44.30;;;;;;5053606;28;20434;-80
2022/03/06 09:01:55;;;;;;;2.20;2.10;;;17.90;44.70;;;;;;5053916;28;20451;-79
2022/03/06 09:04:24;;;;;;;2.03;1.93;;;18.00;44.70;;;;;;5054372;28;20561;-81
2022/03/06 09:06:52;;;;;;;2.30;2.20;;;18.20;44.60;;;;;;5054382;28;20484;-81
2022/03/06 09:09:20;;;;;;;2.60;2.40;;;18.40;44.60;;;;;;5052076;28;20508;-81
2022/03/06 09:11:48;;;;;;;2.00;1.90;;;18.60;44.60;;;;;;5054157;28;20481;-81
2022/03/06 09:14:16;;;;;;;2.30;2.20;;;18.80;44.40;;;;;;5054525;28;20504;-82
2022/03/06 09:16:45;;;;;;;2.10;2.00;;;19.00;44.20;;;;;;5054155;28;20485;-82
2022/03/06 09:19:13;;;;;;;2.00;1.90;;;19.20;44.00;;;;;;5055170;28;20454;-82
2022/03/06 09:21:43;;;;;;;2.20;2.10;;;19.40;44.40;;;;;;5055259;28;20442;-81
2022/03/06 09:24:11;;;;;;;2.07;1.87;;;19.50;43.60;;;;;;5055547;28;20474;-80
2022/03/06 09:26:39;;;;;;;2.00;1.90;;;19.80;43.40;;;;;;5052754;28;20458;-81
2022/03/06 09:29:07;;;;;;;2.20;2.10;;;19.90;43.10;;;;;;5055136;28;20438;-81
2022/03/06 09:31:35;;;;;;;2.17;2.07;;;20.10;42.80;;;;;;5054212;28;20443;-81
2022/03/06 09:34:04;;;;;;;1.80;1.70;;;20.30;42.60;;;;;;5055118;28;20454;-81
2022/03/06 09:36:44;;;;;;;2.50;2.40;;;20.50;42.40;;;;;;5054699;28;20517;-81
2022/03/06 09:39:13;;;;;;;2.03;1.93;;;20.80;42.00;;;;;;5054596;28;20875;-82
2022/03/06 09:41:41;;;;;;;2.00;1.90;;;20.90;41.90;;;;;;5054683;28;20453;-81
2022/03/06 09:44:10;;;;;;;2.27;2.17;;;21.20;41.60;;;;;;5045315;28;20454;-82
2022/03/06 09:46:38;;;;;;;2.23;1.80;;;21.40;41.40;;;;;;5058822;28;20442;-83
2022/03/06 09:49:08;;;;;;;1.70;1.60;;;21.50;41.10;;;;;;5058897;28;20450;-81
2022/03/06 09:51:38;;;;;;;1.80;1.70;;;21.70;41.00;;;;;;5059610;28;20450;-84
2022/03/06 09:54:06;;;;;;;1.90;1.80;;;21.90;40.80;;;;;;5059080;28;20441;-83
2022/03/06 09:56:34;;;;;;;1.83;1.73;;;22.00;40.50;;;;;;5058639;28;20504;-84
2022/03/06 09:59:02;;;;;;;1.93;1.83;;;22.20;40.40;;;;;;5058847;28;20451;-84
2022/03/06 10:01:31;;;;;;;1.80;1.70;;;22.40;40.20;;;;;;5059479;28;20442;-83
2022/03/06 10:03:59;;;;;;;1.73;1.63;;;22.60;40.60;;;;;;5058555;28;20479;-82
2022/03/06 10:06:29;;;;;;;2.27;2.17;;;22.80;39.70;;;;;;5058693;28;20837;-82
2022/03/06 10:09:03;;;;;;;1.77;1.67;;;23.00;39.40;;;;;;5058833;28;20466;-83
2022/03/06 10:11:31;;;;;;;1.83;1.73;;;23.10;39.10;;;;;;5060686;28;20464;-83
2022/03/06 10:13:59;;;;;;;7.07;1.60;;;23.20;38.80;;;;;;5059881;28;20458;-81
2022/03/06 10:16:27;;;;;;;1.77;1.67;;;23.40;38.60;;;;;;5060050;28;20449;-82
2022/03/06 10:18:56;;;;;;;1.50;1.50;;;23.30;38.60;;;;;;5059913;28;20472;-82
2022/03/06 10:21:24;;;;;;;1.60;1.50;;;23.40;38.60;;;;;;5054466;28;20457;-81
2022/03/06 10:23:55;;;;;;;1.60;1.60;;;23.50;38.40;;;;;;5059233;28;20458;-82
2022/03/06 10:26:23;;;;;;;1.87;1.77;;;23.70;38.20;;;;;;5060733;28;20486;-82
2022/03/06 10:28:54;;;;;;;1.83;1.73;;;23.80;37.80;;;;;;5059203;28;20507;-82
2022/03/06 10:31:22;;;;;;;1.70;1.60;;;24.10;37.70;;;;;;5062276;28;20427;-80
2022/03/06 10:33:58;;;;;;;1.70;1.60;;;24.20;37.50;;;;;;5064827;28;20469;-80
2022/03/06 10:36:52;;;;;;;1.60;1.50;;;24.40;37.30;;;;;;5061123;28;20454;-79
2022/03/06 10:39:23;;;;;;;1.60;1.50;;;24.60;37.10;;;;;;5038646;28;20465;-79
2022/03/06 10:41:51;;;;;;;1.93;1.73;;;24.70;37.00;;;;;;5060370;28;20992;-79
2022/03/06 10:44:20;;;;;;;1.93;1.83;;;24.90;36.70;;;;;;5058714;28;20480;-82
2022/03/06 10:47:01;;;;;;;1.50;1.40;;;25.10;36.40;;;;;;5058930;28;20417;-81
2022/03/06 10:49:29;;;;;;;1.80;1.63;;;25.30;36.10;;;;;;5058719;28;20958;-81
2022/03/06 10:51:57;;;;;;;1.80;1.70;;;25.50;35.70;;;;;;5058417;28;20447;-82
2022/03/06 10:54:26;;;;;;;1.53;1.53;;;25.70;35.30;;;;;;5056956;28;20486;-82
2022/03/06 10:56:55;;;;;;;1.60;1.60;;;25.90;35.00;;;;;;5057150;28;20485;-82
2022/03/06 10:59:25;;;;;;;1.83;1.50;;;26.10;34.90;;;;;;5058005;28;20440;-82
2022/03/06 11:01:52;;;;;;;1.70;1.60;;;26.30;34.50;;;;;;5057439;28;20525;-81
2022/03/06 11:04:21;;;;;;;1.30;1.30;;;26.50;34.20;;;;;;5057662;28;20461;-79
2022/03/06 11:06:51;;;;;;;1.67;1.57;;;26.70;33.90;;;;;;5058735;28;20417;-79
2022/03/06 11:09:19;;;;;;;1.50;1.40;;;26.90;33.60;;;;;;5056763;28;20448;-79
2022/03/06 11:11:50;;;;;;;1.47;1.47;;;27.00;33.60;;;;;;5058193;28;20475;-79
2022/03/06 11:14:18;;;;;;;1.50;1.40;;;27.10;33.20;;;;;;5059116;28;20541;-79
2022/03/06 11:16:46;;;;;;;1.40;1.40;;;27.40;33.00;;;;;;5058701;28;20467;-79
2022/03/06 11:19:14;;;;;;;1.20;1.20;;;27.60;32.60;;;;;;5059465;28;20498;-79
2022/03/06 11:21:43;;;;;;;1.43;1.43;;;27.90;32.20;;;;;;5059531;28;20433;-79
2022/03/06 11:24:12;;;;;;;1.30;1.30;;;28.20;32.40;;;;;;5058820;28;20502;-79
2022/03/06 11:27:08;;;;;;;2.10;1.43;;;28.60;31.30;;;;;;5055982;28;20502;-79
2022/03/06 11:30:18;;;;;;;1.50;1.40;;;29.40;30.40;;;;;;5059123;28;20449;-79
2022/03/06 11:32:47;;;;;;;1.10;1.10;;;30.30;29.60;;;;;;5053696;28;20481;-79
2022/03/06 11:35:16;;;;;;;1.40;1.40;;;31.10;28.70;;;;;;5055298;28;20448;-79
2022/03/06 11:37:52;;;;;;;1.30;1.30;;;31.90;28.10;;;;;;5058395;28;20427;-80
2022/03/06 11:40:50;;;;;;;1.33;1.33;;;32.70;27.20;;;;;;5058882;28;20434;-80
2022/03/06 11:43:44;;;;;;;1.30;1.20;;;33.70;26.40;;;;;;5056505;28;20482;-80
2022/03/06 11:46:16;;;;;;;1.20;1.20;;;34.70;25.40;;;;;;5058981;28;20474;-80
2022/03/06 11:49:11;;;;;;;1.17;1.07;;;35.80;24.40;;;;;;5058952;28;20453;-80
2022/03/06 11:51:47;;;;;;;1.10;1.00;;;36.50;23.90;;;;;;5059082;28;20442;-80
2022/03/06 11:54:17;;;;;;;1.10;1.10;;;37.40;22.80;;;;;;5059368;28;20466;-80
2022/03/06 11:56:56;;;;;;;0.87;0.87;;;38.20;22.10;;;;;;5059144;28;20431;-80
2022/03/06 11:59:46;;;;;;;0.93;0.93;;;38.90;21.60;;;;;;5056450;28;20450;-80
2022/03/06 12:02:21;;;;;;;0.87;0.87;;;39.40;20.90;;;;;;5054079;28;20442;-79
2022/03/06 12:04:54;;;;;;;1.03;1.03;;;40.00;20.60;;;;;;5055246;28;20434;-80
2022/03/06 12:07:23;;;;;;;0.80;0.80;;;40.40;20.30;;;;;;5053486;28;20511;-80
2022/03/06 12:09:53;;;;;;;0.90;0.90;;;40.90;19.90;;;;;;5053621;28;20445;-80
2022/03/06 12:12:22;;;;;;;0.90;0.90;;;40.90;19.70;;;;;;5055054;28;20438;-80
2022/03/06 12:14:53;;;;;;;0.90;0.90;;;40.70;19.00;;;;;;5055185;28;20537;-80
2022/03/06 12:17:45;;;;;;;1.10;0.90;;;39.80;19.60;;;;;;5052801;28;20458;-80
2022/03/06 12:20:28;;;;;;;0.90;0.90;;;39.80;19.30;;;;;;5054493;28;20513;-80
2022/03/06 12:23:02;;;;;;;0.90;0.90;;;40.70;19.80;;;;;;5055308;28;20485;-81
2022/03/06 12:25:33;;;;;;;27.03;1.30;;;40.20;19.30;;;;;;5055140;28;20552;-80
2022/03/06 12:28:21;;;;;;;0.80;0.80;;;40.10;19.10;;;;;;5055542;28;20466;-80
2022/03/06 12:30:50;;;;;;;0.70;0.70;;;39.80;20.40;;;;;;5054780;28;20466;-80
2022/03/06 12:33:37;;;;;;;0.90;0.90;;;39.80;19.50;;;;;;5052688;28;20474;-79
2022/03/06 12:36:21;;;;;;;0.70;0.70;;;37.90;20.00;;;;;;5054542;28;20452;-79
2022/03/06 12:38:54;;;;;;;1.00;1.00;;;36.70;20.80;;;;;;5054876;28;20470;-79
2022/03/06 12:41:22;;;;;;;0.70;0.70;;;35.40;21.90;;;;;;5053545;28;20466;-79
2022/03/06 12:43:51;;;;;;;0.90;0.90;;;34.40;22.60;;;;;;5053277;28;20489;-79
2022/03/06 12:46:20;;;;;;;1.20;1.20;;;33.60;23.30;;;;;;5053753;28;20474;-79
2022/03/06 12:48:49;;;;;;;1.20;1.20;;;33.00;23.80;;;;;;5051991;28;20454;-81
2022/03/06 12:51:27;;;;;;;1.43;0.80;;;34.20;24.40;;;;;;5054045;28;20477;-82
2022/03/06 12:53:55;;;;;;;4.30;1.00;;;33.90;22.70;;;;;;5054348;28;20494;-82
2022/03/06 12:56:30;;;;;;;0.90;0.90;;;33.20;23.20;;;;;;5053712;28;20522;-81